Essen Mülheim Airport

EDLE · North Rhine-Westphalia, 德国

罗盘
风向 的 风向 360° Essen Mulheim Airport 6/24
风: 5 kt, 2 beaufort

2 kt

5 kt
改变
0 ft 1.000 2.000 3.000 4.000 5.000
Cloud Cloud Cloud Cloud Cloud Cloud Cloud Cloud
OVC 2.200
METAR EDLW 280920Z 36005KT 9999 OVC022 M00/M04 Q1030

METAR Essen Mulheim Airport - EDLE/ESS

Essen Mulheim Airport是,德国中的小机场。 该机场有一条跑道: 6/24. 该领域的国际民航组织标志是EDLE 它的国际航空运输协会代码是ESS.

这份报告是针对2023年1月28日 10:20, 当地时间在Dortmund Airport进行的。

机场观察

风向为360°,速度为5 kt。

可见度为10 km 或者更多。

有乌云密布在2.200 ft的高度。 破损或更高的上限为2.200 ft。

温度为0 °C,阵风为-5 °C。 露点为-4 °C,相对湿度为75%。 海平面上的气压为1030 hPa (QNH)。

白天

今天,太阳从08:16升起,在17:14降落。 这适用于Essen Mulheim Airport,世界夏令时可能有所不同。 当地时间与世界标准时间之间的时差为+1 小时。 当前,没有夏令时有效。

公司介绍

我们没有关于这个机场的公司信息。

体会

到Vliegles.nl去找飞行课程,跳伞和其他飞行体验。 浏览页面,了解Essen Mulheim Airport附近所有可用的活动。 你也可以使用搜索功能来寻找你所在地附近的特定飞行课程、跳伞或其他飞行体验。

跑道

Id 标题 侧风 逆风 侧风 %
6/24 066°-246° 5 kt 2 kt 91 %

逆风成分最大的方向会被突出显示,并用于横风计算。 这并不一定意味着这个方向在使用。

乌云

2.200 ft OVC 乌云密布

温度 & 天气

温度 0 °C
露点 -4 °C
相对湿度 75%
风寒 -5 °C
Kp-index 1 (0-9)

白天

日出
08:13
中午
12:42
日落
17:11 (6:13)

小工具

你想在你的网站上有一个关于Essen Mulheim Airport的当前航空天气(METAR)的小部件吗?

显示HTML代码

我们和第三方通过cookies跟踪您在我们网站上的互联网行为。如果你继续,我们认为你同意我们的饼干政策